Bravo Supporter — ZDJY7 — position and weather

sailwx.info

Track history (hours):
 
Tides and Currents Weather Stations Pressure Air Temp Water Temp Dewpoint Dewpoint Depression Visibility Wind Speed Wind Dir Waves Ship Positions

Bravo Supporter

Last reported at 2017-Oct-25 18:30 UTC. Time now 2017-Nov-21 15:44 UTC.
Position N 36°37' E 030°44'.
Warning: this ship's position is 26 days out of date.

Length 56 m; draft 4.2 m.

Type: Other ship. MMSI: 236578000.

Date/timePositionNaut miles runAvg speedWind from/ knotsBaromVisibWave heightAir tempDewpointWater temp
2017-Oct-25 18:30N 36°37' E 030°44'4 8.9
2017-Oct-25 18:00N 36°42' E 030°42'4 8.9
2017-Oct-25 17:30N 36°46' E 030°40'5 9.0
2017-Oct-25 17:00N 36°50' E 030°38'1 2.2
2017-Oct-25 16:29N 36°50' E 030°36'0 0.0
2017-Oct-25 15:59N 36°50' E 030°36'0 0.0
2017-Oct-25 15:29N 36°50' E 030°36'0 0.0
2017-Oct-25 14:59N 36°50' E 030°36'0 0.0
2017-Oct-25 14:29N 36°50' E 030°36'0 0.0
2017-Oct-25 13:59N 36°50' E 030°36'0 0.0
2017-Oct-25 13:29N 36°50' E 030°36'0 0.0
2017-Oct-25 12:59N 36°50' E 030°36'0 0.0
2017-Oct-25 12:29N 36°50' E 030°36'0 0.0
2017-Oct-25 11:59N 36°50' E 030°36'0 0.0
2017-Oct-25 11:29N 36°50' E 030°36'0 0.0
2017-Oct-25 10:59N 36°50' E 030°36'0 0.0
2017-Oct-25 10:29N 36°50' E 030°36'0 0.0
2017-Oct-25 09:59N 36°50' E 030°36'3 6.1
2017-Oct-25 09:31N 36°50' E 030°40'2 4.7
2017-Oct-25 09:00N 36°48' E 030°40'2 3.3
2017-Oct-25 08:30N 36°46' E 030°40'2 3.3
2017-Oct-25 08:01N 36°44' E 030°41'2 4.2
2017-Oct-25 07:30N 36°46' E 030°40'4 8.9
2017-Oct-25 07:00N 36°50' E 030°37'0 0.7
2017-Oct-25 06:30N 36°50' E 030°36'0 0.0
2017-Oct-25 06:00N 36°50' E 030°36'0 0.0
2017-Oct-25 05:27N 36°50' E 030°36'0 0.0
2017-Oct-25 05:00N 36°50' E 030°36'0 0.0
2017-Oct-25 04:27N 36°50' E 030°36'0 0.0
2017-Oct-25 04:00N 36°50' E 030°36'0 0.0
2017-Oct-25 03:30N 36°50' E 030°36'0 0.0
2017-Oct-25 02:57N 36°50' E 030°36'0 0.0
2017-Oct-25 02:30N 36°50' E 030°36'0 0.0
2017-Oct-25 02:00N 36°50' E 030°36'0 0.0
2017-Oct-25 01:30N 36°50' E 030°36'0 0.0
2017-Oct-25 01:00N 36°50' E 030°36'0 0.0
2017-Oct-25 00:30N 36°50' E 030°36'0 0.0
2017-Oct-25 00:00N 36°50' E 030°36'0 0.0
2017-Oct-24 23:30N 36°50' E 030°36'0 0.0
2017-Oct-24 23:00N 36°50' E 030°36'0 0.0
2017-Oct-24 22:30N 36°50' E 030°36'0 0.0
2017-Oct-24 22:00N 36°50' E 030°36'0 0.0
2017-Oct-24 21:30N 36°50' E 030°36'0 0.0
2017-Oct-24 21:00N 36°50' E 030°36'0 0.0
2017-Oct-24 20:30N 36°50' E 030°36'0 0.0
2017-Oct-24 20:00N 36°50' E 030°36'0 0.0
2017-Oct-24 19:30N 36°50' E 030°36'0 0.0
2017-Oct-24 19:00N 36°50' E 030°36'0 0.0
2017-Oct-24 18:30N 36°50' E 030°36'0 0.0
2017-Oct-24 18:00N 36°50' E 030°36'0 0.0
2017-Oct-24 17:30N 36°50' E 030°36'0 0.0
2017-Oct-24 17:00N 36°50' E 030°36'0 0.0
2017-Oct-24 16:30N 36°50' E 030°36'0 0.0
2017-Oct-24 16:00N 36°50' E 030°36'0 0.0
2017-Oct-24 15:30N 36°50' E 030°36'0 0.0
2017-Oct-24 15:00N 36°50' E 030°36'0 0.0
2017-Oct-24 14:30N 36°50' E 030°36'0 0.0
2017-Oct-24 14:00N 36°50' E 030°36'0 0.0
2017-Oct-24 13:30N 36°50' E 030°36'0 0.0
2017-Oct-24 13:00N 36°50' E 030°36'0 0.0
2017-Oct-24 12:30N 36°50' E 030°36'  
Track history (hours):
 
Tides and Currents Weather Stations Pressure Air Temp Water Temp Dewpoint Dewpoint Depression Visibility Wind Speed Wind Dir Waves Ship Positions

Bravo Supporter

Last reported at 2017-Oct-25 18:30 UTC. Time now 2017-Nov-21 15:44 UTC.
Position N 36°37' E 030°44'.
Warning: this ship's position is 26 days out of date.

Length 56 m; draft 4.2 m.

Type: Other ship. MMSI: 236578000.

Date/timePositionNaut miles runAvg speedWind from/ knotsBaromVisibWave heightAir tempDewpointWater temp
2017-Oct-25 18:30N 36°37' E 030°44'4 8.9
2017-Oct-25 18:00N 36°42' E 030°42'4 8.9
2017-Oct-25 17:30N 36°46' E 030°40'5 9.0
2017-Oct-25 17:00N 36°50' E 030°38'1 2.2
2017-Oct-25 16:29N 36°50' E 030°36'0 0.0
2017-Oct-25 15:59N 36°50' E 030°36'0 0.0
2017-Oct-25 15:29N 36°50' E 030°36'0 0.0
2017-Oct-25 14:59N 36°50' E 030°36'0 0.0
2017-Oct-25 14:29N 36°50' E 030°36'0 0.0
2017-Oct-25 13:59N 36°50' E 030°36'0 0.0
2017-Oct-25 13:29N 36°50' E 030°36'0 0.0
2017-Oct-25 12:59N 36°50' E 030°36'0 0.0
2017-Oct-25 12:29N 36°50' E 030°36'0 0.0
2017-Oct-25 11:59N 36°50' E 030°36'0 0.0
2017-Oct-25 11:29N 36°50' E 030°36'0 0.0
2017-Oct-25 10:59N 36°50' E 030°36'0 0.0
2017-Oct-25 10:29N 36°50' E 030°36'0 0.0
2017-Oct-25 09:59N 36°50' E 030°36'3 6.1
2017-Oct-25 09:31N 36°50' E 030°40'2 4.7
2017-Oct-25 09:00N 36°48' E 030°40'2 3.3
2017-Oct-25 08:30N 36°46' E 030°40'2 3.3
2017-Oct-25 08:01N 36°44' E 030°41'2 4.2
2017-Oct-25 07:30N 36°46' E 030°40'4 8.9
2017-Oct-25 07:00N 36°50' E 030°37'0 0.7
2017-Oct-25 06:30N 36°50' E 030°36'0 0.0
2017-Oct-25 06:00N 36°50' E 030°36'0 0.0
2017-Oct-25 05:27N 36°50' E 030°36'0 0.0
2017-Oct-25 05:00N 36°50' E 030°36'0 0.0
2017-Oct-25 04:27N 36°50' E 030°36'0 0.0
2017-Oct-25 04:00N 36°50' E 030°36'0 0.0
2017-Oct-25 03:30N 36°50' E 030°36'0 0.0
2017-Oct-25 02:57N 36°50' E 030°36'0 0.0
2017-Oct-25 02:30N 36°50' E 030°36'0 0.0
2017-Oct-25 02:00N 36°50' E 030°36'0 0.0
2017-Oct-25 01:30N 36°50' E 030°36'0 0.0
2017-Oct-25 01:00N 36°50' E 030°36'0 0.0
2017-Oct-25 00:30N 36°50' E 030°36'0 0.0
2017-Oct-25 00:00N 36°50' E 030°36'0 0.0
2017-Oct-24 23:30N 36°50' E 030°36'0 0.0
2017-Oct-24 23:00N 36°50' E 030°36'0 0.0
2017-Oct-24 22:30N 36°50' E 030°36'0 0.0
2017-Oct-24 22:00N 36°50' E 030°36'0 0.0
2017-Oct-24 21:30N 36°50' E 030°36'0 0.0
2017-Oct-24 21:00N 36°50' E 030°36'0 0.0
2017-Oct-24 20:30N 36°50' E 030°36'0 0.0
2017-Oct-24 20:00N 36°50' E 030°36'0 0.0
2017-Oct-24 19:30N 36°50' E 030°36'0 0.0
2017-Oct-24 19:00N 36°50' E 030°36'0 0.0
2017-Oct-24 18:30N 36°50' E 030°36'0 0.0
2017-Oct-24 18:00N 36°50' E 030°36'0 0.0
2017-Oct-24 17:30N 36°50' E 030°36'0 0.0
2017-Oct-24 17:00N 36°50' E 030°36'0 0.0
2017-Oct-24 16:30N 36°50' E 030°36'0 0.0
2017-Oct-24 16:00N 36°50' E 030°36'0 0.0
2017-Oct-24 15:30N 36°50' E 030°36'0 0.0
2017-Oct-24 15:00N 36°50' E 030°36'0 0.0
2017-Oct-24 14:30N 36°50' E 030°36'0 0.0
2017-Oct-24 14:00N 36°50' E 030°36'0 0.0
2017-Oct-24 13:30N 36°50' E 030°36'0 0.0
2017-Oct-24 13:00N 36°50' E 030°36'0 0.0
2017-Oct-24 12:30N 36°50' E 030°36'  

Dump ship's entire track history